sensor_id;sensor_type;location;lat;lon;timestamp;temperature;humidity
24146;DHT22;12308;50.948;4.706;2023-03-03T00:02:04;3.20;99.90
24146;DHT22;12308;50.948;4.706;2023-03-03T00:04:29;3.10;99.90
24146;DHT22;12308;50.948;4.706;2023-03-03T00:06:55;3.10;99.90
24146;DHT22;12308;50.948;4.706;2023-03-03T00:09:20;3.00;99.90
24146;DHT22;12308;50.948;4.706;2023-03-03T00:11:49;3.00;99.90
24146;DHT22;12308;50.948;4.706;2023-03-03T00:14:31;3.00;99.90
24146;DHT22;12308;50.948;4.706;2023-03-03T00:17:00;2.90;99.90
24146;DHT22;12308;50.948;4.706;2023-03-03T00:19:37;2.90;99.90
24146;DHT22;12308;50.948;4.706;2023-03-03T00:22:15;2.80;99.90
24146;DHT22;12308;50.948;4.706;2023-03-03T00:24:43;2.90;99.90
24146;DHT22;12308;50.948;4.706;2023-03-03T00:27:29;2.90;99.90
24146;DHT22;12308;50.948;4.706;2023-03-03T00:29:56;3.00;99.90
24146;DHT22;12308;50.948;4.706;2023-03-03T00:32:28;3.00;99.90
24146;DHT22;12308;50.948;4.706;2023-03-03T00:35:01;3.00;99.90
24146;DHT22;12308;50.948;4.706;2023-03-03T00:37:42;3.00;99.90
24146;DHT22;12308;50.948;4.706;2023-03-03T00:40:21;2.80;99.90
24146;DHT22;12308;50.948;4.706;2023-03-03T00:42:51;2.80;99.90
24146;DHT22;12308;50.948;4.706;2023-03-03T00:47:48;2.80;99.90
24146;DHT22;12308;50.948;4.706;2023-03-03T00:50:33;2.80;99.90
24146;DHT22;12308;50.948;4.706;2023-03-03T00:53:10;2.70;99.90
24146;DHT22;12308;50.948;4.706;2023-03-03T00:55:36;2.60;99.90
24146;DHT22;12308;50.948;4.706;2023-03-03T00:58:02;2.60;99.90
24146;DHT22;12308;50.948;4.706;2023-03-03T01:00:28;2.60;99.90
24146;DHT22;12308;50.948;4.706;2023-03-03T01:02:54;2.40;99.90
24146;DHT22;12308;50.948;4.706;2023-03-03T01:05:20;2.30;99.90
24146;DHT22;12308;50.948;4.706;2023-03-03T01:07:46;2.40;99.90
24146;DHT22;12308;50.948;4.706;2023-03-03T01:10:11;2.30;99.90
24146;DHT22;12308;50.948;4.706;2023-03-03T01:12:37;2.40;99.90
24146;DHT22;12308;50.948;4.706;2023-03-03T01:15:08;2.40;99.90
24146;DHT22;12308;50.948;4.706;2023-03-03T01:17:35;2.50;99.90
24146;DHT22;12308;50.948;4.706;2023-03-03T01:20:01;2.50;99.90
24146;DHT22;12308;50.948;4.706;2023-03-03T01:22:28;2.30;99.90
24146;DHT22;12308;50.948;4.706;2023-03-03T01:24:53;2.20;99.90
24146;DHT22;12308;50.948;4.706;2023-03-03T01:27:19;2.10;99.90
24146;DHT22;12308;50.948;4.706;2023-03-03T01:29:45;2.00;99.90
24146;DHT22;12308;50.948;4.706;2023-03-03T01:32:10;1.90;99.90
24146;DHT22;12308;50.948;4.706;2023-03-03T01:34:36;2.00;99.90
24146;DHT22;12308;50.948;4.706;2023-03-03T01:37:02;2.00;99.90
24146;DHT22;12308;50.948;4.706;2023-03-03T01:39:28;2.00;99.90
24146;DHT22;12308;50.948;4.706;2023-03-03T01:41:53;2.00;99.90
24146;DHT22;12308;50.948;4.706;2023-03-03T01:44:19;1.90;99.90
24146;DHT22;12308;50.948;4.706;2023-03-03T01:47:14;2.20;99.90
24146;DHT22;12308;50.948;4.706;2023-03-03T01:49:49;2.30;99.90
24146;DHT22;12308;50.948;4.706;2023-03-03T01:52:35;2.10;99.90
24146;DHT22;12308;50.948;4.706;2023-03-03T01:55:07;2.00;99.90
24146;DHT22;12308;50.948;4.706;2023-03-03T01:57:43;1.90;99.90
24146;DHT22;12308;50.948;4.706;2023-03-03T02:00:13;1.80;99.90
24146;DHT22;12308;50.948;4.706;2023-03-03T02:02:40;1.70;99.90
24146;DHT22;12308;50.948;4.706;2023-03-03T02:05:07;1.80;99.90
24146;DHT22;12308;50.948;4.706;2023-03-03T02:07:33;1.80;99.90
24146;DHT22;12308;50.948;4.706;2023-03-03T02:10:12;1.70;99.90
24146;DHT22;12308;50.948;4.706;2023-03-03T02:12:44;1.80;99.90
24146;DHT22;12308;50.948;4.706;2023-03-03T02:17:49;1.90;99.90
24146;DHT22;12308;50.948;4.706;2023-03-03T02:23:06;1.70;99.90
24146;DHT22;12308;50.948;4.706;2023-03-03T02:25:47;1.60;99.90
24146;DHT22;12308;50.948;4.706;2023-03-03T02:28:16;1.40;99.90
24146;DHT22;12308;50.948;4.706;2023-03-03T02:30:43;1.30;99.90
24146;DHT22;12308;50.948;4.706;2023-03-03T02:33:08;1.20;99.90
24146;DHT22;12308;50.948;4.706;2023-03-03T02:35:39;1.20;99.90
24146;DHT22;12308;50.948;4.706;2023-03-03T02:44:05;1.20;99.90
24146;DHT22;12308;50.948;4.706;2023-03-03T02:46:23;1.20;99.90
24146;DHT22;12308;50.948;4.706;2023-03-03T02:48:49;1.20;99.90
24146;DHT22;12308;50.948;4.706;2023-03-03T02:51:14;1.20;99.90
24146;DHT22;12308;50.948;4.706;2023-03-03T02:53:40;1.30;99.90
24146;DHT22;12308;50.948;4.706;2023-03-03T02:56:06;1.30;99.90
24146;DHT22;12308;50.948;4.706;2023-03-03T02:58:34;1.20;99.90
24146;DHT22;12308;50.948;4.706;2023-03-03T03:01:00;1.30;99.90
24146;DHT22;12308;50.948;4.706;2023-03-03T03:03:26;1.50;99.90
24146;DHT22;12308;50.948;4.706;2023-03-03T03:05:51;1.50;99.90
24146;DHT22;12308;50.948;4.706;2023-03-03T03:08:17;1.60;99.90
24146;DHT22;12308;50.948;4.706;2023-03-03T03:10:43;1.60;99.90
24146;DHT22;12308;50.948;4.706;2023-03-03T03:13:09;1.60;99.90
24146;DHT22;12308;50.948;4.706;2023-03-03T03:15:35;1.70;99.90
24146;DHT22;12308;50.948;4.706;2023-03-03T03:18:01;2.00;99.90
24146;DHT22;12308;50.948;4.706;2023-03-03T03:20:26;2.10;99.90
24146;DHT22;12308;50.948;4.706;2023-03-03T03:22:52;2.10;99.90
24146;DHT22;12308;50.948;4.706;2023-03-03T03:25:18;2.30;99.90
24146;DHT22;12308;50.948;4.706;2023-03-03T03:27:43;2.30;99.90
24146;DHT22;12308;50.948;4.706;2023-03-03T03:30:09;2.40;99.90
24146;DHT22;12308;50.948;4.706;2023-03-03T03:32:35;2.80;99.90
24146;DHT22;12308;50.948;4.706;2023-03-03T03:35:01;2.90;99.90
24146;DHT22;12308;50.948;4.706;2023-03-03T03:37:26;3.00;99.90
24146;DHT22;12308;50.948;4.706;2023-03-03T03:39:52;2.90;99.90
24146;DHT22;12308;50.948;4.706;2023-03-03T03:42:18;2.60;99.90
24146;DHT22;12308;50.948;4.706;2023-03-03T03:44:44;2.40;99.90
24146;DHT22;12308;50.948;4.706;2023-03-03T03:47:10;2.30;99.90
24146;DHT22;12308;50.948;4.706;2023-03-03T03:49:35;2.30;99.90
24146;DHT22;12308;50.948;4.706;2023-03-03T03:52:01;2.30;99.90
24146;DHT22;12308;50.948;4.706;2023-03-03T03:54:27;2.30;99.90
24146;DHT22;12308;50.948;4.706;2023-03-03T03:56:53;2.40;99.90
24146;DHT22;12308;50.948;4.706;2023-03-03T03:59:19;2.30;99.90
24146;DHT22;12308;50.948;4.706;2023-03-03T04:01:45;2.50;99.90
24146;DHT22;12308;50.948;4.706;2023-03-03T04:04:12;2.50;99.90
24146;DHT22;12308;50.948;4.706;2023-03-03T04:06:38;2.50;99.90
24146;DHT22;12308;50.948;4.706;2023-03-03T04:09:04;2.60;99.90
24146;DHT22;12308;50.948;4.706;2023-03-03T04:11:30;2.60;99.90
24146;DHT22;12308;50.948;4.706;2023-03-03T04:13:55;2.60;99.90
24146;DHT22;12308;50.948;4.706;2023-03-03T04:16:21;2.50;99.90
24146;DHT22;12308;50.948;4.706;2023-03-03T04:18:47;2.60;99.90
24146;DHT22;12308;50.948;4.706;2023-03-03T04:21:13;2.50;99.90
24146;DHT22;12308;50.948;4.706;2023-03-03T04:23:39;2.40;99.90
24146;DHT22;12308;50.948;4.706;2023-03-03T04:26:05;2.30;99.90
24146;DHT22;12308;50.948;4.706;2023-03-03T04:28:30;2.40;99.90
24146;DHT22;12308;50.948;4.706;2023-03-03T04:30:56;2.40;99.90
24146;DHT22;12308;50.948;4.706;2023-03-03T04:33:22;2.40;99.90
24146;DHT22;12308;50.948;4.706;2023-03-03T04:35:47;2.40;99.90
24146;DHT22;12308;50.948;4.706;2023-03-03T04:38:13;2.30;99.90
24146;DHT22;12308;50.948;4.706;2023-03-03T04:40:40;2.20;99.90
24146;DHT22;12308;50.948;4.706;2023-03-03T04:43:07;2.20;99.90
24146;DHT22;12308;50.948;4.706;2023-03-03T04:45:32;2.20;99.90
24146;DHT22;12308;50.948;4.706;2023-03-03T04:47:58;2.30;99.90
24146;DHT22;12308;50.948;4.706;2023-03-03T04:50:24;2.30;99.90
24146;DHT22;12308;50.948;4.706;2023-03-03T04:52:49;2.50;99.90
24146;DHT22;12308;50.948;4.706;2023-03-03T04:55:15;2.50;99.90
24146;DHT22;12308;50.948;4.706;2023-03-03T04:57:41;2.50;99.90
24146;DHT22;12308;50.948;4.706;2023-03-03T05:00:09;2.60;99.90
24146;DHT22;12308;50.948;4.706;2023-03-03T05:02:37;2.50;99.90
24146;DHT22;12308;50.948;4.706;2023-03-03T05:05:04;2.50;99.90
24146;DHT22;12308;50.948;4.706;2023-03-03T05:07:29;2.40;99.90
24146;DHT22;12308;50.948;4.706;2023-03-03T05:09:55;2.50;99.90
24146;DHT22;12308;50.948;4.706;2023-03-03T05:12:21;2.40;99.90
24146;DHT22;12308;50.948;4.706;2023-03-03T05:14:46;2.40;99.90
24146;DHT22;12308;50.948;4.706;2023-03-03T05:17:13;2.30;99.90
24146;DHT22;12308;50.948;4.706;2023-03-03T05:19:39;2.30;99.90
24146;DHT22;12308;50.948;4.706;2023-03-03T05:22:04;2.20;99.90
24146;DHT22;12308;50.948;4.706;2023-03-03T05:24:30;2.20;99.90
24146;DHT22;12308;50.948;4.706;2023-03-03T05:26:56;2.20;99.90
24146;DHT22;12308;50.948;4.706;2023-03-03T05:29:22;2.20;99.90
24146;DHT22;12308;50.948;4.706;2023-03-03T05:31:48;2.20;99.90
24146;DHT22;12308;50.948;4.706;2023-03-03T05:34:14;2.20;99.90
24146;DHT22;12308;50.948;4.706;2023-03-03T05:36:39;2.30;99.90
24146;DHT22;12308;50.948;4.706;2023-03-03T05:39:05;2.20;99.90
24146;DHT22;12308;50.948;4.706;2023-03-03T05:41:31;2.20;99.90
24146;DHT22;12308;50.948;4.706;2023-03-03T05:43:57;2.30;99.90
24146;DHT22;12308;50.948;4.706;2023-03-03T05:46:22;2.20;99.90
24146;DHT22;12308;50.948;4.706;2023-03-03T05:48:48;2.10;99.90
24146;DHT22;12308;50.948;4.706;2023-03-03T05:51:14;2.10;99.90
24146;DHT22;12308;50.948;4.706;2023-03-03T05:53:40;2.10;99.90
24146;DHT22;12308;50.948;4.706;2023-03-03T05:56:06;2.20;99.90
24146;DHT22;12308;50.948;4.706;2023-03-03T05:58:31;2.10;99.90
24146;DHT22;12308;50.948;4.706;2023-03-03T06:00:57;2.20;99.90
24146;DHT22;12308;50.948;4.706;2023-03-03T06:03:22;2.20;99.90
24146;DHT22;12308;50.948;4.706;2023-03-03T06:05:48;2.20;99.90
24146;DHT22;12308;50.948;4.706;2023-03-03T06:08:14;2.40;99.90
24146;DHT22;12308;50.948;4.706;2023-03-03T06:10:39;2.40;99.90
24146;DHT22;12308;50.948;4.706;2023-03-03T06:13:05;2.40;99.90
24146;DHT22;12308;50.948;4.706;2023-03-03T06:15:31;2.30;99.90
24146;DHT22;12308;50.948;4.706;2023-03-03T06:17:56;2.20;99.90
24146;DHT22;12308;50.948;4.706;2023-03-03T06:20:22;2.10;99.90
24146;DHT22;12308;50.948;4.706;2023-03-03T06:22:47;2.00;99.90
24146;DHT22;12308;50.948;4.706;2023-03-03T06:25:13;1.80;99.90
24146;DHT22;12308;50.948;4.706;2023-03-03T06:27:39;1.80;99.90
24146;DHT22;12308;50.948;4.706;2023-03-03T06:30:07;1.60;99.90
24146;DHT22;12308;50.948;4.706;2023-03-03T06:32:33;1.70;99.90
24146;DHT22;12308;50.948;4.706;2023-03-03T06:34:59;1.70;99.90
24146;DHT22;12308;50.948;4.706;2023-03-03T06:37:24;1.80;99.90
24146;DHT22;12308;50.948;4.706;2023-03-03T06:39:50;1.70;99.90
24146;DHT22;12308;50.948;4.706;2023-03-03T06:42:17;1.70;99.90
24146;DHT22;12308;50.948;4.706;2023-03-03T06:44:43;1.80;99.90
24146;DHT22;12308;50.948;4.706;2023-03-03T06:47:09;1.80;99.90
24146;DHT22;12308;50.948;4.706;2023-03-03T06:49:34;1.80;99.90
24146;DHT22;12308;50.948;4.706;2023-03-03T06:52:07;1.80;99.90
24146;DHT22;12308;50.948;4.706;2023-03-03T06:54:34;1.80;99.90
24146;DHT22;12308;50.948;4.706;2023-03-03T06:57:07;1.70;99.90
24146;DHT22;12308;50.948;4.706;2023-03-03T06:59:38;1.60;99.90
24146;DHT22;12308;50.948;4.706;2023-03-03T07:02:13;1.60;99.90
24146;DHT22;12308;50.948;4.706;2023-03-03T07:04:40;1.60;99.90
24146;DHT22;12308;50.948;4.706;2023-03-03T07:07:32;1.60;99.90
24146;DHT22;12308;50.948;4.706;2023-03-03T07:09:59;1.80;99.90
24146;DHT22;12308;50.948;4.706;2023-03-03T07:12:27;1.90;99.90
24146;DHT22;12308;50.948;4.706;2023-03-03T07:17:42;1.90;99.90
24146;DHT22;12308;50.948;4.706;2023-03-03T07:20:31;2.00;99.90
24146;DHT22;12308;50.948;4.706;2023-03-03T07:22:58;2.10;99.90
24146;DHT22;12308;50.948;4.706;2023-03-03T07:25:30;2.10;99.90
24146;DHT22;12308;50.948;4.706;2023-03-03T07:28:11;2.20;99.90
24146;DHT22;12308;50.948;4.706;2023-03-03T07:30:38;2.30;99.90
24146;DHT22;12308;50.948;4.706;2023-03-03T07:33:07;2.40;99.90
24146;DHT22;12308;50.948;4.706;2023-03-03T07:35:43;2.50;99.90
24146;DHT22;12308;50.948;4.706;2023-03-03T07:38:24;2.50;99.90
24146;DHT22;12308;50.948;4.706;2023-03-03T07:40:55;2.30;99.90
24146;DHT22;12308;50.948;4.706;2023-03-03T07:43:48;2.30;99.90
24146;DHT22;12308;50.948;4.706;2023-03-03T07:48:54;2.10;99.90
24146;DHT22;12308;50.948;4.706;2023-03-03T07:53:49;1.90;99.90
24146;DHT22;12308;50.948;4.706;2023-03-03T07:58:46;2.00;99.90
24146;DHT22;12308;50.948;4.706;2023-03-03T08:06:50;2.00;99.90
24146;DHT22;12308;50.948;4.706;2023-03-03T08:14:20;2.00;99.90
24146;DHT22;12308;50.948;4.706;2023-03-03T08:16:49;2.00;99.90
24146;DHT22;12308;50.948;4.706;2023-03-03T08:19:16;2.10;99.90
24146;DHT22;12308;50.948;4.706;2023-03-03T08:21:42;2.10;99.90
24146;DHT22;12308;50.948;4.706;2023-03-03T08:24:08;2.20;99.90
24146;DHT22;12308;50.948;4.706;2023-03-03T08:26:34;2.10;99.90
24146;DHT22;12308;50.948;4.706;2023-03-03T08:29:00;2.20;99.90
24146;DHT22;12308;50.948;4.706;2023-03-03T08:31:26;2.20;99.90
24146;DHT22;12308;50.948;4.706;2023-03-03T08:33:52;2.30;99.90
24146;DHT22;12308;50.948;4.706;2023-03-03T08:36:18;2.40;99.90
24146;DHT22;12308;50.948;4.706;2023-03-03T08:38:44;2.50;99.90
24146;DHT22;12308;50.948;4.706;2023-03-03T08:41:10;2.50;99.90
24146;DHT22;12308;50.948;4.706;2023-03-03T08:43:36;2.60;99.90
24146;DHT22;12308;50.948;4.706;2023-03-03T08:46:03;2.60;99.90
24146;DHT22;12308;50.948;4.706;2023-03-03T08:48:30;2.60;99.90
24146;DHT22;12308;50.948;4.706;2023-03-03T08:50:56;2.70;99.90
24146;DHT22;12308;50.948;4.706;2023-03-03T08:53:22;2.70;99.90
24146;DHT22;12308;50.948;4.706;2023-03-03T08:55:48;2.70;99.90
24146;DHT22;12308;50.948;4.706;2023-03-03T08:58:16;2.80;99.90
24146;DHT22;12308;50.948;4.706;2023-03-03T09:00:42;2.80;99.90
24146;DHT22;12308;50.948;4.706;2023-03-03T09:03:08;2.80;99.90
24146;DHT22;12308;50.948;4.706;2023-03-03T09:05:36;2.80;99.90
24146;DHT22;12308;50.948;4.706;2023-03-03T09:08:03;2.90;99.90
24146;DHT22;12308;50.948;4.706;2023-03-03T09:10:29;3.00;99.90
24146;DHT22;12308;50.948;4.706;2023-03-03T09:13:17;3.00;99.90
24146;DHT22;12308;50.948;4.706;2023-03-03T09:15:44;2.70;99.90
24146;DHT22;12308;50.948;4.706;2023-03-03T09:20:45;3.00;99.90
24146;DHT22;12308;50.948;4.706;2023-03-03T09:23:36;3.10;99.90
24146;DHT22;12308;50.948;4.706;2023-03-03T09:26:25;3.10;99.90
24146;DHT22;12308;50.948;4.706;2023-03-03T09:31:50;3.30;99.90
24146;DHT22;12308;50.948;4.706;2023-03-03T09:37:01;3.20;99.90
24146;DHT22;12308;50.948;4.706;2023-03-03T09:39:29;3.30;99.90
24146;DHT22;12308;50.948;4.706;2023-03-03T09:50:33;3.50;99.90
24146;DHT22;12308;50.948;4.706;2023-03-03T09:56:32;3.50;99.90
24146;DHT22;12308;50.948;4.706;2023-03-03T10:17:51;3.80;99.90
24146;DHT22;12308;50.948;4.706;2023-03-03T10:20:29;4.20;99.90
24146;DHT22;12308;50.948;4.706;2023-03-03T10:28:53;4.20;99.90
24146;DHT22;12308;50.948;4.706;2023-03-03T10:40:25;4.90;99.90
24146;DHT22;12308;50.948;4.706;2023-03-03T10:46:13;5.30;99.90
24146;DHT22;12308;50.948;4.706;2023-03-03T10:54:12;5.00;99.90
24146;DHT22;12308;50.948;4.706;2023-03-03T11:02:07;5.00;99.90
24146;DHT22;12308;50.948;4.706;2023-03-03T11:05:11;5.00;99.90
24146;DHT22;12308;50.948;4.706;2023-03-03T11:08:06;5.10;99.90
24146;DHT22;12308;50.948;4.706;2023-03-03T11:29:06;5.50;99.90
24146;DHT22;12308;50.948;4.706;2023-03-03T11:31:43;5.40;99.90
24146;DHT22;12308;50.948;4.706;2023-03-03T11:37:19;5.60;99.90
24146;DHT22;12308;50.948;4.706;2023-03-03T11:39:48;5.70;99.90
24146;DHT22;12308;50.948;4.706;2023-03-03T11:42:37;5.60;99.90
24146;DHT22;12308;50.948;4.706;2023-03-03T11:45:29;5.60;99.90
24146;DHT22;12308;50.948;4.706;2023-03-03T11:48:47;5.60;99.90
24146;DHT22;12308;50.948;4.706;2023-03-03T11:51:25;5.70;99.90
24146;DHT22;12308;50.948;4.706;2023-03-03T11:56:33;5.90;99.90
24146;DHT22;12308;50.948;4.706;2023-03-03T11:59:13;5.80;99.90
24146;DHT22;12308;50.948;4.706;2023-03-03T12:01:55;6.00;99.90
24146;DHT22;12308;50.948;4.706;2023-03-03T12:04:31;6.20;99.90
24146;DHT22;12308;50.948;4.706;2023-03-03T12:12:35;6.20;99.90
24146;DHT22;12308;50.948;4.706;2023-03-03T12:25:57;7.10;99.90
24146;DHT22;12308;50.948;4.706;2023-03-03T12:28:52;7.20;99.90
24146;DHT22;12308;50.948;4.706;2023-03-03T12:34:33;7.20;99.90
24146;DHT22;12308;50.948;4.706;2023-03-03T12:44:46;6.80;99.90
24146;DHT22;12308;50.948;4.706;2023-03-03T12:47:37;6.60;99.90
24146;DHT22;12308;50.948;4.706;2023-03-03T12:53:17;6.60;99.90
24146;DHT22;12308;50.948;4.706;2023-03-03T13:04:46;6.90;99.90
24146;DHT22;12308;50.948;4.706;2023-03-03T13:07:33;6.80;99.90
24146;DHT22;12308;50.948;4.706;2023-03-03T13:15:33;6.50;99.90
24146;DHT22;12308;50.948;4.706;2023-03-03T13:18:50;6.20;99.90
24146;DHT22;12308;50.948;4.706;2023-03-03T13:24:05;6.30;99.90
24146;DHT22;12308;50.948;4.706;2023-03-03T13:26:42;6.30;99.90
24146;DHT22;12308;50.948;4.706;2023-03-03T13:29:29;6.40;99.90
24146;DHT22;12308;50.948;4.706;2023-03-03T13:32:18;6.60;99.90
24146;DHT22;12308;50.948;4.706;2023-03-03T13:37:48;6.70;99.90
24146;DHT22;12308;50.948;4.706;2023-03-03T13:40:25;6.60;99.90
24146;DHT22;12308;50.948;4.706;2023-03-03T13:43:03;6.80;99.90
24146;DHT22;12308;50.948;4.706;2023-03-03T13:45:47;6.90;99.90
24146;DHT22;12308;50.948;4.706;2023-03-03T13:51:29;7.40;99.90
24146;DHT22;12308;50.948;4.706;2023-03-03T14:05:29;6.60;99.90
24146;DHT22;12308;50.948;4.706;2023-03-03T14:07:58;6.80;99.90
24146;DHT22;12308;50.948;4.706;2023-03-03T14:19:01;7.00;99.90
24146;DHT22;12308;50.948;4.706;2023-03-03T14:24:17;7.00;99.90
24146;DHT22;12308;50.948;4.706;2023-03-03T14:27:12;7.10;99.90
24146;DHT22;12308;50.948;4.706;2023-03-03T14:29:45;7.20;99.90
24146;DHT22;12308;50.948;4.706;2023-03-03T14:32:25;7.30;99.90
24146;DHT22;12308;50.948;4.706;2023-03-03T14:35:00;7.10;99.90
24146;DHT22;12308;50.948;4.706;2023-03-03T14:37:29;7.30;99.90
24146;DHT22;12308;50.948;4.706;2023-03-03T14:40:21;7.30;99.90
24146;DHT22;12308;50.948;4.706;2023-03-03T14:47:56;7.30;99.90
24146;DHT22;12308;50.948;4.706;2023-03-03T14:50:34;7.30;99.90
24146;DHT22;12308;50.948;4.706;2023-03-03T14:55:46;7.40;99.90
24146;DHT22;12308;50.948;4.706;2023-03-03T14:58:35;7.40;99.90
24146;DHT22;12308;50.948;4.706;2023-03-03T15:01:14;7.40;99.90
24146;DHT22;12308;50.948;4.706;2023-03-03T15:03:49;7.40;99.90
24146;DHT22;12308;50.948;4.706;2023-03-03T15:06:40;7.50;99.90
24146;DHT22;12308;50.948;4.706;2023-03-03T15:09:36;7.70;99.90
24146;DHT22;12308;50.948;4.706;2023-03-03T15:12:35;7.80;99.90
24146;DHT22;12308;50.948;4.706;2023-03-03T15:15:23;7.60;99.90
24146;DHT22;12308;50.948;4.706;2023-03-03T15:17:56;7.50;99.90
24146;DHT22;12308;50.948;4.706;2023-03-03T15:21:02;7.60;99.90
24146;DHT22;12308;50.948;4.706;2023-03-03T15:26:23;7.70;99.90
24146;DHT22;12308;50.948;4.706;2023-03-03T15:29:06;7.70;99.90
24146;DHT22;12308;50.948;4.706;2023-03-03T15:35:01;7.90;99.90
24146;DHT22;12308;50.948;4.706;2023-03-03T15:45:44;7.60;99.90
24146;DHT22;12308;50.948;4.706;2023-03-03T15:48:27;7.70;99.90
24146;DHT22;12308;50.948;4.706;2023-03-03T16:04:25;8.30;99.90
24146;DHT22;12308;50.948;4.706;2023-03-03T16:23:24;7.80;99.90
24146;DHT22;12308;50.948;4.706;2023-03-03T16:26:03;7.90;99.90
24146;DHT22;12308;50.948;4.706;2023-03-03T16:28:48;7.90;99.90
24146;DHT22;12308;50.948;4.706;2023-03-03T16:31:22;8.00;99.90
24146;DHT22;12308;50.948;4.706;2023-03-03T16:37:13;8.00;99.90
24146;DHT22;12308;50.948;4.706;2023-03-03T16:42:30;7.90;99.90
24146;DHT22;12308;50.948;4.706;2023-03-03T16:45:35;7.80;99.90
24146;DHT22;12308;50.948;4.706;2023-03-03T17:01:24;7.90;99.90
24146;DHT22;12308;50.948;4.706;2023-03-03T17:04:12;7.80;99.90
24146;DHT22;12308;50.948;4.706;2023-03-03T17:06:48;7.90;99.90
24146;DHT22;12308;50.948;4.706;2023-03-03T17:11:58;7.70;99.90
24146;DHT22;12308;50.948;4.706;2023-03-03T17:20:26;8.00;99.90
24146;DHT22;12308;50.948;4.706;2023-03-03T17:26:02;7.80;99.90
24146;DHT22;12308;50.948;4.706;2023-03-03T17:28:39;7.60;99.90
24146;DHT22;12308;50.948;4.706;2023-03-03T17:33:47;7.90;99.90
24146;DHT22;12308;50.948;4.706;2023-03-03T17:36:42;7.80;99.90
24146;DHT22;12308;50.948;4.706;2023-03-03T17:44:42;7.90;99.90
24146;DHT22;12308;50.948;4.706;2023-03-03T17:47:15;7.80;99.90
24146;DHT22;12308;50.948;4.706;2023-03-03T17:56:00;7.70;99.90
24146;DHT22;12308;50.948;4.706;2023-03-03T17:59:03;7.90;99.90
24146;DHT22;12308;50.948;4.706;2023-03-03T18:01:41;8.00;99.90
24146;DHT22;12308;50.948;4.706;2023-03-03T18:15:13;7.70;99.90
24146;DHT22;12308;50.948;4.706;2023-03-03T18:20:38;7.90;99.90
24146;DHT22;12308;50.948;4.706;2023-03-03T18:23:31;7.70;99.90
24146;DHT22;12308;50.948;4.706;2023-03-03T18:37:10;7.50;99.90
24146;DHT22;12308;50.948;4.706;2023-03-03T18:48:11;7.50;99.90
24146;DHT22;12308;50.948;4.706;2023-03-03T18:50:51;7.60;99.90
24146;DHT22;12308;50.948;4.706;2023-03-03T18:53:18;7.60;99.90
24146;DHT22;12308;50.948;4.706;2023-03-03T18:55:47;7.50;99.90
24146;DHT22;12308;50.948;4.706;2023-03-03T19:01:32;7.90;99.90
24146;DHT22;12308;50.948;4.706;2023-03-03T19:03:54;8.20;99.90
24146;DHT22;12308;50.948;4.706;2023-03-03T19:09:00;8.00;99.90
24146;DHT22;12308;50.948;4.706;2023-03-03T19:20:11;7.50;99.90
24146;DHT22;12308;50.948;4.706;2023-03-03T19:23:21;7.60;99.90
24146;DHT22;12308;50.948;4.706;2023-03-03T19:34:06;7.60;99.90
24146;DHT22;12308;50.948;4.706;2023-03-03T19:45:18;7.90;99.90
24146;DHT22;12308;50.948;4.706;2023-03-03T19:50:53;7.60;99.90
24146;DHT22;12308;50.948;4.706;2023-03-03T19:53:45;7.40;99.90
24146;DHT22;12308;50.948;4.706;2023-03-03T19:56:26;7.30;99.90
24146;DHT22;12308;50.948;4.706;2023-03-03T19:59:08;7.20;99.90
24146;DHT22;12308;50.948;4.706;2023-03-03T20:10:37;7.10;99.90
24146;DHT22;12308;50.948;4.706;2023-03-03T20:16:09;7.10;99.90
24146;DHT22;12308;50.948;4.706;2023-03-03T20:18:46;7.20;99.90
24146;DHT22;12308;50.948;4.706;2023-03-03T20:45:57;7.50;99.90
24146;DHT22;12308;50.948;4.706;2023-03-03T20:54:32;7.80;99.90
24146;DHT22;12308;50.948;4.706;2023-03-03T21:05:14;7.20;99.90
24146;DHT22;12308;50.948;4.706;2023-03-03T21:07:59;7.40;99.90
24146;DHT22;12308;50.948;4.706;2023-03-03T21:10:28;7.40;99.90
24146;DHT22;12308;50.948;4.706;2023-03-03T21:12:58;7.40;99.90
24146;DHT22;12308;50.948;4.706;2023-03-03T21:15:54;7.40;99.90
24146;DHT22;12308;50.948;4.706;2023-03-03T21:18:22;7.50;99.90
24146;DHT22;12308;50.948;4.706;2023-03-03T21:20:48;7.60;99.90
24146;DHT22;12308;50.948;4.706;2023-03-03T21:23:15;7.60;99.90
24146;DHT22;12308;50.948;4.706;2023-03-03T21:28:34;7.30;99.90
24146;DHT22;12308;50.948;4.706;2023-03-03T21:33:49;7.40;99.90
24146;DHT22;12308;50.948;4.706;2023-03-03T21:42:01;7.30;99.90
24146;DHT22;12308;50.948;4.706;2023-03-03T21:46:53;7.30;99.90
24146;DHT22;12308;50.948;4.706;2023-03-03T21:49:19;7.30;99.90
24146;DHT22;12308;50.948;4.706;2023-03-03T21:51:44;7.10;99.90
24146;DHT22;12308;50.948;4.706;2023-03-03T21:54:10;6.90;99.90
24146;DHT22;12308;50.948;4.706;2023-03-03T21:56:35;6.80;99.90
24146;DHT22;12308;50.948;4.706;2023-03-03T21:59:02;6.80;99.90
24146;DHT22;12308;50.948;4.706;2023-03-03T22:01:27;6.90;99.90
24146;DHT22;12308;50.948;4.706;2023-03-03T22:03:53;6.90;99.90
24146;DHT22;12308;50.948;4.706;2023-03-03T22:06:19;7.00;99.90
24146;DHT22;12308;50.948;4.706;2023-03-03T22:08:44;7.00;99.90
24146;DHT22;12308;50.948;4.706;2023-03-03T22:11:10;6.90;99.90
24146;DHT22;12308;50.948;4.706;2023-03-03T22:13:36;6.90;99.90
24146;DHT22;12308;50.948;4.706;2023-03-03T22:16:04;7.00;99.90
24146;DHT22;12308;50.948;4.706;2023-03-03T22:18:31;7.10;99.90
24146;DHT22;12308;50.948;4.706;2023-03-03T22:20:57;7.10;99.90
24146;DHT22;12308;50.948;4.706;2023-03-03T22:23:23;7.10;99.90
24146;DHT22;12308;50.948;4.706;2023-03-03T22:25:48;7.10;99.90
24146;DHT22;12308;50.948;4.706;2023-03-03T22:28:14;7.10;99.90
24146;DHT22;12308;50.948;4.706;2023-03-03T22:30:40;7.20;99.90
24146;DHT22;12308;50.948;4.706;2023-03-03T22:33:05;7.20;99.90
24146;DHT22;12308;50.948;4.706;2023-03-03T22:35:31;7.10;99.90
24146;DHT22;12308;50.948;4.706;2023-03-03T22:37:56;7.10;99.90
24146;DHT22;12308;50.948;4.706;2023-03-03T22:40:22;7.30;99.90
24146;DHT22;12308;50.948;4.706;2023-03-03T22:42:48;7.50;99.90
24146;DHT22;12308;50.948;4.706;2023-03-03T22:45:14;7.40;99.90
24146;DHT22;12308;50.948;4.706;2023-03-03T22:47:39;7.40;99.90
24146;DHT22;12308;50.948;4.706;2023-03-03T22:50:06;7.40;99.90
24146;DHT22;12308;50.948;4.706;2023-03-03T22:52:31;7.30;99.90
24146;DHT22;12308;50.948;4.706;2023-03-03T22:54:57;7.20;99.90
24146;DHT22;12308;50.948;4.706;2023-03-03T22:57:24;7.10;99.90
24146;DHT22;12308;50.948;4.706;2023-03-03T22:59:49;7.00;99.90
24146;DHT22;12308;50.948;4.706;2023-03-03T23:02:15;6.90;99.90
24146;DHT22;12308;50.948;4.706;2023-03-03T23:04:41;6.90;99.90
24146;DHT22;12308;50.948;4.706;2023-03-03T23:07:07;6.80;99.90
24146;DHT22;12308;50.948;4.706;2023-03-03T23:09:32;6.80;99.90
24146;DHT22;12308;50.948;4.706;2023-03-03T23:11:59;6.80;99.90
24146;DHT22;12308;50.948;4.706;2023-03-03T23:14:25;6.90;99.90
24146;DHT22;12308;50.948;4.706;2023-03-03T23:16:50;7.00;99.90
24146;DHT22;12308;50.948;4.706;2023-03-03T23:19:16;7.00;99.90
24146;DHT22;12308;50.948;4.706;2023-03-03T23:21:42;7.00;99.90
24146;DHT22;12308;50.948;4.706;2023-03-03T23:24:08;7.00;99.90